LEGR Información de aeropuertos

Información de pistas
Pista 09 Longitud 9514 ft Ancho 148 ft
Elevación 1842 ft Umbral 0 ft Rumbo 90
Pista 27 Longitud 9514 ft Ancho 148 ft
Elevación 1860 ft Umbral 0 ft Rumbo 270
Frecuencias
Tipo GND Nombre GND Frequencia 121.7 MHZ
Tipo TWR Nombre TWR Frequencia 118.85 MHZ
Radioayudas
Tipo VOR-DME Nombre Granada Frequencia 113400 KHZ
Información meteorológica y NOTAM
ADDS - METARS form results

(1341 UTC 21 October 2021)
Data provider http://aviationweather.gov/metar/data/
 
METAR text: LEGR 211330Z 28010KT 250V330 9999 FEW070 27/09 Q1018
Conditions at: LEGR (GRANADA AIRPORT , ES) observed 1330 UTC 21 October 2021
Temperature: 27.0°C (81°F)
Dewpoint: 9.0°C (48°F) [RH = 32%]
Pressure (altimeter): 30.06 inches Hg (1018.0 mb)
Winds: from the W (280 degrees) at 12 MPH (10 knots; 5.1 m/s)
Visibility: 6 or more miles (10+ km)
Ceiling: at least 12,000 feet AGL
Clouds: few clouds at 7000 feet AGL
Weather: no significant weather observed at this time

METAR text: LEGR 211300Z 25005KT 210V310 9999 FEW070 26/09 Q1018
Conditions at: LEGR (GRANADA AIRPORT , ES) observed 1300 UTC 21 October 2021
Temperature: 26.0°C (79°F)
Dewpoint: 9.0°C (48°F) [RH = 34%]
Pressure (altimeter): 30.06 inches Hg (1018.0 mb)
Winds: from the WSW (250 degrees) at 6 MPH (5 knots; 2.6 m/s)
Visibility: 6 or more miles (10+ km)
Ceiling: at least 12,000 feet AGL
Clouds: few clouds at 7000 feet AGL
Weather: no significant weather observed at this time

Forecast for: LEGR (GRANADA AIRPORT , ES)
Text: TAF LEGR 211100Z 2112/2212 29010KT CAVOK TX29/2115Z TN07/2206Z
Forecast period: 1200 to 1900 UTC 21 October 2021
Forecast type: FROM: standard forecast or significant change
Winds: from the WNW (290 degrees) at 12 MPH (10 knots; 5.1 m/s)
Visibility: 6 or more miles (10+ km)
Ceiling: unknown
Clouds: missing
Weather: no significant weather forecast for this period
Text: BECMG 2119/2121 VRB02KT
Forecast period: 1900 UTC 21 October 2021 to 1200 UTC 22 October 2021
Forecast type: BECOMING: Conditions expected to become as follows by 2100 UTC 21 October 2021
Winds: variable direction winds at 2 MPH (2 knots; 1.0 m/s)
Visibility: 6 or more miles (10+ km)
Ceiling: unknown
Clouds: missing
Weather: no significant weather forecast for this period